createdAt,value
2023-01-01T00:01:59.513Z,94.81
2023-01-01T00:04:25.959Z,94.79
2023-01-01T00:06:52.372Z,95.24
2023-01-01T00:09:37.130Z,95.04
2023-01-01T00:12:03.894Z,95.05
2023-01-01T00:14:30.188Z,95.49
2023-01-01T00:16:57.037Z,96.02
2023-01-01T00:19:23.516Z,95.72
2023-01-01T00:21:49.980Z,95.79
2023-01-01T00:24:16.245Z,95.76
2023-01-01T00:26:42.508Z,95.57
2023-01-01T00:29:08.959Z,95.58
2023-01-01T00:31:35.320Z,95.85
2023-01-01T00:34:01.694Z,95.65
2023-01-01T00:36:29.870Z,95.90
2023-01-01T00:38:56.241Z,95.73
2023-01-01T00:41:23.148Z,95.24
2023-01-01T00:43:49.564Z,95.28
2023-01-01T00:46:15.972Z,95.24
2023-01-01T00:48:42.496Z,95.44
2023-01-01T00:51:09.453Z,95.61
2023-01-01T00:53:36.549Z,95.81
2023-01-01T00:56:04.015Z,95.52
2023-01-01T00:58:30.457Z,95.59
2023-01-01T01:00:57.172Z,95.76
2023-01-01T01:03:30.280Z,95.88
2023-01-01T01:06:10.777Z,96.17
2023-01-01T01:08:39.330Z,96.24
2023-01-01T01:11:06.631Z,96.55
2023-01-01T01:13:32.961Z,96.51
2023-01-01T01:15:59.490Z,96.50
2023-01-01T01:18:25.998Z,96.22
2023-01-01T01:20:53.709Z,96.21
2023-01-01T01:23:21.125Z,96.78
2023-01-01T01:25:47.550Z,96.67
2023-01-01T01:28:13.903Z,96.83
2023-01-01T01:30:40.818Z,96.69
2023-01-01T01:33:07.457Z,96.60
2023-01-01T01:35:33.851Z,96.73
2023-01-01T01:38:00.202Z,96.80
2023-01-01T01:40:26.581Z,96.96
2023-01-01T01:42:52.851Z,97.01
2023-01-01T01:45:19.575Z,97.05
2023-01-01T01:47:55.723Z,97.23
2023-01-01T01:50:56.253Z,97.21
2023-01-01T01:53:29.494Z,97.14
2023-01-01T01:56:00.904Z,96.61
2023-01-01T01:58:29.404Z,96.68
2023-01-01T02:00:55.858Z,96.99
2023-01-01T02:03:57.330Z,96.99
2023-01-01T02:06:26.435Z,96.22
2023-01-01T02:08:53.989Z,96.42
2023-01-01T02:11:22.035Z,95.62
2023-01-01T02:13:49.637Z,95.83
2023-01-01T02:16:23.978Z,96.15
2023-01-01T02:19:06.077Z,96.12
2023-01-01T02:21:39.399Z,96.26
2023-01-01T02:24:34.735Z,96.21
2023-01-01T02:27:11.630Z,96.30
2023-01-01T02:29:48.789Z,96.48
2023-01-01T02:32:23.196Z,96.65
2023-01-01T02:34:59.144Z,96.56
2023-01-01T02:37:28.233Z,96.76
2023-01-01T02:39:58.294Z,97.44
2023-01-01T02:42:28.917Z,97.26
2023-01-01T02:44:58.103Z,97.30
2023-01-01T02:47:24.459Z,96.95
2023-01-01T02:49:58.477Z,96.71
2023-01-01T02:52:49.666Z,96.98
2023-01-01T02:55:29.027Z,96.94
2023-01-01T02:58:30.616Z,97.07
2023-01-01T03:01:07.555Z,97.32
2023-01-01T03:03:51.692Z,97.35
2023-01-01T03:06:30.443Z,97.51
2023-01-01T03:09:16.313Z,97.98
2023-01-01T03:11:50.628Z,98.21
2023-01-01T03:14:29.423Z,98.06
2023-01-01T03:17:11.730Z,98.01
2023-01-01T03:19:42.312Z,97.72
2023-01-01T03:22:15.840Z,97.54
2023-01-01T03:25:00.157Z,97.41
2023-01-01T03:27:47.464Z,97.15
2023-01-01T03:30:16.625Z,97.31
2023-01-01T03:33:05.969Z,96.99
2023-01-01T03:35:53.784Z,97.37
2023-01-01T03:38:29.078Z,97.40
2023-01-01T03:41:03.137Z,97.15
2023-01-01T03:43:44.884Z,97.02
2023-01-01T03:46:13.530Z,97.44
2023-01-01T03:49:03.689Z,97.24
2023-01-01T03:51:52.172Z,97.43
2023-01-01T03:54:27.386Z,97.67
2023-01-01T03:57:04.045Z,97.51
2023-01-01T03:59:40.307Z,97.54
2023-01-01T04:02:11.231Z,97.32
2023-01-01T04:04:38.358Z,97.51
2023-01-01T04:07:14.747Z,97.53
2023-01-01T04:09:47.510Z,97.85
2023-01-01T04:12:16.351Z,97.95
2023-01-01T04:14:43.010Z,98.10
2023-01-01T04:17:11.175Z,98.15
2023-01-01T04:19:37.893Z,98.15
2023-01-01T04:22:04.536Z,98.47
2023-01-01T04:24:30.975Z,98.47
2023-01-01T04:26:57.490Z,98.29
2023-01-01T04:29:23.805Z,98.21
2023-01-01T04:31:50.326Z,97.90
2023-01-01T04:34:16.784Z,97.97
2023-01-01T04:36:43.296Z,97.75
2023-01-01T04:39:09.681Z,97.45
2023-01-01T04:41:35.967Z,97.67
2023-01-01T04:44:02.799Z,97.63
2023-01-01T04:46:29.088Z,97.83
2023-01-01T04:48:55.410Z,97.72
2023-01-01T04:51:22.117Z,97.71
2023-01-01T04:53:48.858Z,97.73
2023-01-01T04:56:20.595Z,97.66
2023-01-01T04:58:47.850Z,97.70
2023-01-01T05:01:18.803Z,97.81
2023-01-01T05:03:45.690Z,97.39
2023-01-01T05:06:13.959Z,97.50
2023-01-01T05:08:42.769Z,97.60
2023-01-01T05:11:17.287Z,97.66
2023-01-01T05:13:45.826Z,98.05
2023-01-01T05:16:15.165Z,98.16
2023-01-01T05:18:42.152Z,97.82
2023-01-01T05:21:11.995Z,98.10
2023-01-01T05:23:38.358Z,98.15
2023-01-01T05:26:12.045Z,98.22
2023-01-01T05:28:39.290Z,97.93
2023-01-01T05:31:08.219Z,97.92
2023-01-01T05:33:35.316Z,98.25
2023-01-01T05:36:02.848Z,98.46
2023-01-01T05:38:29.273Z,98.36
2023-01-01T05:40:56.090Z,98.41
2023-01-01T05:43:22.619Z,98.43
2023-01-01T05:45:48.996Z,98.62
2023-01-01T05:48:15.346Z,98.75
2023-01-01T05:50:41.728Z,98.92
2023-01-01T05:53:08.392Z,98.70
2023-01-01T05:55:34.675Z,98.73
2023-01-01T05:58:00.993Z,98.55
2023-01-01T06:00:28.336Z,98.31
2023-01-01T06:02:54.783Z,98.21
2023-01-01T06:05:21.491Z,98.32
2023-01-01T06:07:48.738Z,98.27
2023-01-01T06:10:15.376Z,98.58
2023-01-01T06:12:41.701Z,98.60
2023-01-01T06:15:08.649Z,98.56
2023-01-01T06:17:34.995Z,98.57
2023-01-01T06:20:01.452Z,98.12
2023-01-01T06:22:27.809Z,98.25
2023-01-01T06:24:54.074Z,98.40
2023-01-01T06:27:20.412Z,97.58
2023-01-01T06:29:46.702Z,97.58
2023-01-01T06:32:12.993Z,97.47
2023-01-01T06:34:39.365Z,97.27
2023-01-01T06:37:07.211Z,97.14
2023-01-01T06:39:33.642Z,97.20
2023-01-01T06:42:00.031Z,97.30
2023-01-01T06:44:26.304Z,97.80
2023-01-01T06:46:52.568Z,98.11
2023-01-01T06:49:18.903Z,98.45
2023-01-01T06:51:45.275Z,98.50
2023-01-01T06:54:12.022Z,98.11
2023-01-01T06:56:39.086Z,97.90
2023-01-01T06:59:05.782Z,97.70
2023-01-01T07:01:35.501Z,97.84
2023-01-01T07:04:05.243Z,97.93
2023-01-01T07:06:32.713Z,97.81
2023-01-01T07:08:58.988Z,98.38
2023-01-01T07:11:25.845Z,98.23
2023-01-01T07:13:52.270Z,98.18
2023-01-01T07:16:18.987Z,98.41
2023-01-01T07:18:46.066Z,98.43
2023-01-01T07:21:36.605Z,98.50
2023-01-01T07:24:05.188Z,98.79
2023-01-01T07:26:33.258Z,98.63
2023-01-01T07:29:06.858Z,98.64
2023-01-01T07:31:38.794Z,98.53
2023-01-01T07:34:12.246Z,98.43
2023-01-01T07:36:38.507Z,98.11
2023-01-01T07:39:04.901Z,98.20
2023-01-01T07:41:31.224Z,97.95
2023-01-01T07:43:57.580Z,98.31
2023-01-01T07:46:24.029Z,98.15
2023-01-01T07:48:50.449Z,98.21
2023-01-01T07:51:16.719Z,98.22
2023-01-01T07:53:43.080Z,98.32
2023-01-01T07:56:09.532Z,98.33
2023-01-01T07:58:39.827Z,98.55
2023-01-01T08:01:06.273Z,98.37
2023-01-01T08:03:32.608Z,98.50
2023-01-01T08:05:58.844Z,98.43
2023-01-01T08:08:25.147Z,98.30
2023-01-01T08:10:51.402Z,98.32
2023-01-01T08:13:17.721Z,98.31
2023-01-01T08:15:44.106Z,98.44
2023-01-01T08:18:10.421Z,97.92
2023-01-01T08:20:36.753Z,98.11
2023-01-01T08:23:07.000Z,97.97
2023-01-01T08:25:34.206Z,98.19
2023-01-01T08:28:00.631Z,98.41
2023-01-01T08:30:26.956Z,98.56
2023-01-01T08:32:53.332Z,98.10
2023-01-01T08:35:19.675Z,98.23
2023-01-01T08:37:46.036Z,97.91
2023-01-01T08:40:13.409Z,94.65
2023-01-01T08:42:40.269Z,96.72
2023-01-01T08:45:07.363Z,97.22
2023-01-01T08:47:33.734Z,97.55
2023-01-01T08:50:00.042Z,97.67
2023-01-01T08:52:26.402Z,98.14
2023-01-01T08:54:52.664Z,98.23
2023-01-01T08:57:18.980Z,97.45
2023-01-01T08:59:45.285Z,93.02
2023-01-01T09:02:12.413Z,92.73
2023-01-01T09:04:38.789Z,94.38
2023-01-01T09:07:05.244Z,94.84
2023-01-01T09:09:32.022Z,94.49
2023-01-01T09:12:03.902Z,93.93
2023-01-01T09:14:30.847Z,91.68
2023-01-01T09:16:57.411Z,91.95
2023-01-01T09:19:23.737Z,91.93
2023-01-01T09:21:50.812Z,89.87
2023-01-01T09:24:17.206Z,91.01
2023-01-01T09:26:45.026Z,89.97
2023-01-01T09:29:11.327Z,88.38
2023-01-01T09:31:37.674Z,88.89
2023-01-01T09:34:04.014Z,88.01
2023-01-01T09:36:32.103Z,87.36
2023-01-01T09:38:59.498Z,87.58
2023-01-01T09:41:57.550Z,85.93
2023-01-01T09:45:01.957Z,86.88
2023-01-01T09:47:41.115Z,86.44
2023-01-01T09:50:13.788Z,85.71
2023-01-01T09:52:55.401Z,85.50
2023-01-01T09:55:43.920Z,83.76
2023-01-01T09:58:11.838Z,83.84
2023-01-01T10:00:41.977Z,82.50
2023-01-01T10:03:35.853Z,82.13
2023-01-01T10:06:20.527Z,81.34
2023-01-01T10:09:11.079Z,78.98
2023-01-01T10:11:59.809Z,78.42
2023-01-01T10:14:26.117Z,77.65
2023-01-01T10:16:55.427Z,78.03
2023-01-01T10:19:36.578Z,78.13
2023-01-01T10:22:16.806Z,77.08
2023-01-01T10:24:49.111Z,76.57
2023-01-01T10:27:36.669Z,76.75
2023-01-01T10:30:12.813Z,76.97
2023-01-01T10:32:40.822Z,75.88
2023-01-01T10:35:19.233Z,75.62
2023-01-01T10:37:45.645Z,74.28
2023-01-01T10:40:23.993Z,72.79
2023-01-01T10:42:58.939Z,72.12
2023-01-01T10:45:38.556Z,73.41
2023-01-01T10:48:12.704Z,74.45
2023-01-01T10:50:50.140Z,75.08
2023-01-01T10:53:32.000Z,74.75
2023-01-01T10:56:14.416Z,74.30
2023-01-01T10:58:48.961Z,73.94
2023-01-01T11:01:18.361Z,72.98
2023-01-01T11:04:07.580Z,72.41
2023-01-01T11:06:36.767Z,71.63
2023-01-01T11:09:07.382Z,71.88
2023-01-01T11:11:42.884Z,72.21
2023-01-01T11:14:21.250Z,72.73
2023-01-01T11:16:47.930Z,72.74
2023-01-01T11:19:45.660Z,72.25
2023-01-01T11:22:40.876Z,71.92
2023-01-01T11:25:25.310Z,71.30
2023-01-01T11:27:51.675Z,69.97
2023-01-01T11:30:28.345Z,69.87
2023-01-01T11:33:00.440Z,69.00
2023-01-01T11:35:30.307Z,68.74
2023-01-01T11:37:58.308Z,68.08
2023-01-01T11:40:32.092Z,68.25
2023-01-01T11:43:01.088Z,67.08
2023-01-01T11:45:37.813Z,65.45
2023-01-01T11:48:14.168Z,65.98
2023-01-01T11:50:53.658Z,65.96
2023-01-01T11:53:23.492Z,66.53
2023-01-01T11:56:02.099Z,66.39
2023-01-01T11:58:57.734Z,66.15
2023-01-01T12:02:04.235Z,65.49
2023-01-01T12:04:42.750Z,65.69
2023-01-01T12:07:18.016Z,65.49
2023-01-01T12:10:02.539Z,64.92
2023-01-01T12:12:46.555Z,63.80
2023-01-01T12:15:18.813Z,64.21
2023-01-01T12:17:54.291Z,64.77
2023-01-01T12:20:30.277Z,64.33
2023-01-01T12:22:59.092Z,64.03
2023-01-01T12:25:36.010Z,63.86
2023-01-01T12:28:28.689Z,63.17
2023-01-01T12:31:16.668Z,63.83
2023-01-01T12:34:18.732Z,64.01
2023-01-01T12:37:02.155Z,64.27
2023-01-01T12:39:50.618Z,63.88
2023-01-01T12:42:46.317Z,64.09
2023-01-01T12:45:46.950Z,63.74
2023-01-01T12:48:33.742Z,63.54
2023-01-01T12:51:15.129Z,63.18
2023-01-01T12:54:05.007Z,62.81
2023-01-01T12:56:42.165Z,62.53
2023-01-01T12:59:20.483Z,62.35
2023-01-01T13:01:48.945Z,61.01
2023-01-01T13:04:21.412Z,61.19
2023-01-01T13:06:56.093Z,61.12
2023-01-01T13:09:30.462Z,61.11
2023-01-01T13:12:03.776Z,60.79
2023-01-01T13:14:30.796Z,61.00
2023-01-01T13:16:57.899Z,60.67
2023-01-01T13:19:32.614Z,61.12
2023-01-01T13:22:20.069Z,61.03
2023-01-01T13:25:17.714Z,62.12
2023-01-01T13:28:05.534Z,62.74
2023-01-01T13:30:43.810Z,62.36
2023-01-01T13:33:26.815Z,62.92
2023-01-01T13:36:08.461Z,63.42
2023-01-01T13:38:54.514Z,63.48
2023-01-01T13:41:26.699Z,63.99
2023-01-01T13:44:10.608Z,63.94
2023-01-01T13:46:51.859Z,64.18
2023-01-01T13:49:41.765Z,64.37
2023-01-01T13:52:33.945Z,64.68
2023-01-01T13:55:34.428Z,64.94
2023-01-01T13:58:12.893Z,64.78
2023-01-01T14:00:59.601Z,64.90
2023-01-01T14:03:27.745Z,64.85
2023-01-01T14:05:58.886Z,64.82
2023-01-01T14:08:33.581Z,64.50
2023-01-01T14:11:02.682Z,64.85
2023-01-01T14:13:38.568Z,65.45
2023-01-01T14:16:13.509Z,65.24
2023-01-01T14:18:43.848Z,65.10
2023-01-01T14:21:13.450Z,65.25
2023-01-01T14:23:42.899Z,65.24
2023-01-01T14:26:15.244Z,64.80
2023-01-01T14:28:41.933Z,64.85
2023-01-01T14:31:18.180Z,65.15
2023-01-01T14:33:45.563Z,65.58
2023-01-01T14:36:28.198Z,66.55
2023-01-01T14:38:56.585Z,66.79
2023-01-01T14:41:28.715Z,67.31
2023-01-01T14:44:04.558Z,67.33
2023-01-01T14:46:31.631Z,67.78
2023-01-01T14:49:03.330Z,68.09
2023-01-01T14:51:31.731Z,68.15
2023-01-01T14:53:59.963Z,68.29
2023-01-01T14:56:31.863Z,68.37
2023-01-01T14:59:07.129Z,68.22
2023-01-01T15:01:33.772Z,68.49
2023-01-01T15:04:12.374Z,68.48
2023-01-01T15:06:41.778Z,68.70
2023-01-01T15:09:16.062Z,68.80
2023-01-01T15:11:42.619Z,68.78
2023-01-01T15:14:29.248Z,68.99
2023-01-01T15:17:01.335Z,69.37
2023-01-01T15:19:27.716Z,69.76
2023-01-01T15:21:54.301Z,69.97
2023-01-01T15:24:22.107Z,69.97
2023-01-01T15:27:00.566Z,70.02
2023-01-01T15:29:33.050Z,70.10
2023-01-01T15:32:14.494Z,70.15
2023-01-01T15:34:47.870Z,70.46
2023-01-01T15:37:22.227Z,70.62
2023-01-01T15:39:55.481Z,70.75
2023-01-01T15:42:36.289Z,70.84
2023-01-01T15:45:33.815Z,70.80
2023-01-01T15:48:06.234Z,70.89
2023-01-01T15:50:40.189Z,71.42
2023-01-01T15:53:20.931Z,71.65
2023-01-01T15:56:16.951Z,72.20
2023-01-01T15:58:52.084Z,72.18
2023-01-01T16:01:25.711Z,72.29
2023-01-01T16:04:01.144Z,72.17
2023-01-01T16:06:27.922Z,71.39
2023-01-01T16:08:54.252Z,71.51
2023-01-01T16:11:20.582Z,71.54
2023-01-01T16:13:46.973Z,72.00
2023-01-01T16:16:28.857Z,72.14
2023-01-01T16:18:56.701Z,70.38
2023-01-01T16:21:26.577Z,71.65
2023-01-01T16:23:53.884Z,72.18
2023-01-01T16:26:20.655Z,72.92
2023-01-01T16:28:47.047Z,73.57
2023-01-01T16:31:19.288Z,73.68
2023-01-01T16:33:54.083Z,74.04
2023-01-01T16:36:20.529Z,74.36
2023-01-01T16:38:46.876Z,74.29
2023-01-01T16:41:15.394Z,74.68
2023-01-01T16:43:43.131Z,75.09
2023-01-01T16:46:13.487Z,74.98
2023-01-01T16:48:40.774Z,75.09
2023-01-01T16:51:16.081Z,75.84
2023-01-01T16:53:42.345Z,75.96
2023-01-01T16:56:11.557Z,75.96
2023-01-01T16:58:49.134Z,75.84
2023-01-01T17:01:17.026Z,75.85
2023-01-01T17:03:43.408Z,76.33
2023-01-01T17:06:10.263Z,76.36
2023-01-01T17:08:37.194Z,76.84
2023-01-01T17:11:10.720Z,76.26
2023-01-01T17:13:38.026Z,75.61
2023-01-01T17:16:04.648Z,75.30
2023-01-01T17:19:12.917Z,75.07
2023-01-01T17:21:19.251Z,74.94
2023-01-01T17:23:45.694Z,75.31
2023-01-01T17:26:20.981Z,75.50
2023-01-01T17:28:48.715Z,75.86
2023-01-01T17:31:20.060Z,76.23
2023-01-01T17:33:46.812Z,76.32
2023-01-01T17:36:13.324Z,76.13
2023-01-01T17:38:39.936Z,76.79
2023-01-01T17:41:09.143Z,76.97
2023-01-01T17:43:40.741Z,76.86
2023-01-01T17:46:18.863Z,77.81
2023-01-01T17:48:45.550Z,78.26
2023-01-01T17:51:13.594Z,78.60
2023-01-01T17:53:40.925Z,78.86
2023-01-01T17:56:09.187Z,79.00
2023-01-01T17:58:35.961Z,78.91
2023-01-01T18:01:24.748Z,79.14
2023-01-01T18:03:53.614Z,78.97
2023-01-01T18:06:20.201Z,79.56
2023-01-01T18:08:47.016Z,79.38
2023-01-01T18:11:13.623Z,79.67
2023-01-01T18:13:40.297Z,79.91
2023-01-01T18:16:08.585Z,79.86
2023-01-01T18:18:41.085Z,80.06
2023-01-01T18:21:14.142Z,79.94
2023-01-01T18:23:41.517Z,80.00
2023-01-01T18:26:10.111Z,79.91
2023-01-01T18:28:36.495Z,79.67
2023-01-01T18:31:08.427Z,79.83
2023-01-01T18:33:35.695Z,79.68
2023-01-01T18:36:11.747Z,78.84
2023-01-01T18:38:39.503Z,78.94
2023-01-01T18:41:14.922Z,78.88
2023-01-01T18:43:41.205Z,79.33
2023-01-01T18:46:10.671Z,79.73
2023-01-01T18:48:37.107Z,79.32
2023-01-01T18:51:14.189Z,79.60
2023-01-01T18:53:40.592Z,79.46
2023-01-01T18:56:11.992Z,79.75
2023-01-01T18:58:41.253Z,79.78
2023-01-01T19:01:17.093Z,80.01
2023-01-01T19:03:48.663Z,79.75
2023-01-01T19:06:29.930Z,80.18
2023-01-01T19:09:08.230Z,80.20
2023-01-01T19:11:37.916Z,80.47
2023-01-01T19:14:14.510Z,80.52
2023-01-01T19:16:41.089Z,80.79
2023-01-01T19:19:21.877Z,80.13
2023-01-01T19:21:52.635Z,80.43
2023-01-01T19:24:24.694Z,80.84
2023-01-01T19:26:58.585Z,81.29
2023-01-01T19:29:28.110Z,81.66
2023-01-01T19:31:56.184Z,81.84
2023-01-01T19:34:23.638Z,82.13
2023-01-01T19:36:52.357Z,82.21
2023-01-01T19:39:19.150Z,82.15
2023-01-01T19:41:45.831Z,82.11
2023-01-01T19:44:12.192Z,82.28
2023-01-01T19:46:38.817Z,81.80
2023-01-01T19:49:05.320Z,82.17
2023-01-01T19:51:31.692Z,82.00
2023-01-01T19:53:57.961Z,81.58
2023-01-01T19:56:24.337Z,81.66
2023-01-01T19:58:50.815Z,81.67
2023-01-01T20:01:17.361Z,81.85
2023-01-01T20:03:53.911Z,81.75
2023-01-01T20:06:21.391Z,82.10
2023-01-01T20:08:47.888Z,82.30
2023-01-01T20:11:15.350Z,81.87
2023-01-01T20:13:41.791Z,82.23
2023-01-01T20:16:08.546Z,81.16
2023-01-01T20:18:34.968Z,81.78
2023-01-01T20:21:25.607Z,82.86
2023-01-01T20:23:52.938Z,83.55
2023-01-01T20:26:20.602Z,83.83
2023-01-01T20:29:05.676Z,83.93
2023-01-01T20:31:32.113Z,84.10
2023-01-01T20:33:58.428Z,84.45
2023-01-01T20:36:43.418Z,83.86
2023-01-01T20:39:09.838Z,83.16
2023-01-01T20:41:36.195Z,82.87
2023-01-01T20:44:02.496Z,83.51
2023-01-01T20:46:32.060Z,83.87
2023-01-01T20:48:59.156Z,83.51
2023-01-01T20:51:25.459Z,83.91
2023-01-01T20:53:51.951Z,83.66
2023-01-01T20:56:18.208Z,84.25
2023-01-01T20:58:49.304Z,83.55
2023-01-01T21:01:18.850Z,83.90
2023-01-01T21:03:45.287Z,84.53
2023-01-01T21:06:11.830Z,84.19
2023-01-01T21:08:38.297Z,83.62
2023-01-01T21:11:04.898Z,83.99
2023-01-01T21:13:33.430Z,84.63
2023-01-01T21:16:17.579Z,85.39
2023-01-01T21:18:45.501Z,85.34
2023-01-01T21:21:23.030Z,85.81
2023-01-01T21:23:52.425Z,86.19
2023-01-01T21:26:35.042Z,86.80
2023-01-01T21:29:05.523Z,86.87
2023-01-01T21:31:37.958Z,87.22
2023-01-01T21:34:30.665Z,87.43
2023-01-01T21:37:02.134Z,88.11
2023-01-01T21:39:30.318Z,88.34
2023-01-01T21:42:06.265Z,88.24
2023-01-01T21:44:32.671Z,89.03
2023-01-01T21:47:02.001Z,89.15
2023-01-01T21:49:36.819Z,89.91
2023-01-01T21:52:09.095Z,89.99
2023-01-01T21:54:38.081Z,89.68
2023-01-01T21:57:19.409Z,89.87
2023-01-01T21:59:47.104Z,90.08
2023-01-01T22:02:13.532Z,90.02
2023-01-01T22:04:44.485Z,90.11
2023-01-01T22:10:19.484Z,90.80
2023-01-01T22:12:46.554Z,90.37
2023-01-01T22:15:40.348Z,90.51
2023-01-01T22:18:09.433Z,90.69
2023-01-01T22:20:38.790Z,90.68
2023-01-01T22:23:24.350Z,89.43
2023-01-01T22:25:51.809Z,87.53
2023-01-01T22:28:27.107Z,87.16
2023-01-01T22:30:57.923Z,87.47
2023-01-01T22:33:40.488Z,85.90
2023-01-01T22:36:15.213Z,85.47
2023-01-01T22:38:41.731Z,85.91
2023-01-01T22:41:08.544Z,86.18
2023-01-01T22:43:38.774Z,86.48
2023-01-01T22:46:22.561Z,86.64
2023-01-01T22:48:54.188Z,86.44
2023-01-01T22:51:27.231Z,86.50
2023-01-01T22:53:53.564Z,87.08
2023-01-01T22:56:20.049Z,87.04
2023-01-01T22:58:49.193Z,87.15
2023-01-01T23:01:17.979Z,86.79
2023-01-01T23:03:44.369Z,86.71
2023-01-01T23:06:10.715Z,86.82
2023-01-01T23:08:37.090Z,86.36
2023-01-01T23:11:03.478Z,86.22
2023-01-01T23:13:48.365Z,86.36
2023-01-01T23:16:14.729Z,86.52
2023-01-01T23:18:41.044Z,86.26
2023-01-01T23:21:28.778Z,87.09
2023-01-01T23:23:57.264Z,86.55
2023-01-01T23:26:24.675Z,85.11
2023-01-01T23:28:51.893Z,85.48
2023-01-01T23:31:24.832Z,85.77
2023-01-01T23:33:52.729Z,85.61
